sensor_id;sensor_type;location;lat;lon;timestamp;P1;durP1;ratioP1;P2;durP2;ratioP2
36377;SDS011;22402;42.746;23.606;2023-06-14T00:00:38;4.40;;;4.00;;
36377;SDS011;22402;42.746;23.606;2023-06-14T00:03:07;4.23;;;3.67;;
36377;SDS011;22402;42.746;23.606;2023-06-14T00:05:36;4.43;;;3.50;;
36377;SDS011;22402;42.746;23.606;2023-06-14T00:08:06;4.80;;;4.03;;
36377;SDS011;22402;42.746;23.606;2023-06-14T00:10:35;8.23;;;3.73;;
36377;SDS011;22402;42.746;23.606;2023-06-14T00:13:02;3.63;;;3.37;;
36377;SDS011;22402;42.746;23.606;2023-06-14T00:15:30;3.17;;;2.87;;
36377;SDS011;22402;42.746;23.606;2023-06-14T00:17:56;3.40;;;3.10;;
36377;SDS011;22402;42.746;23.606;2023-06-14T00:20:26;8.53;;;3.30;;
36377;SDS011;22402;42.746;23.606;2023-06-14T00:22:55;2.90;;;2.70;;
36377;SDS011;22402;42.746;23.606;2023-06-14T00:25:23;3.07;;;2.80;;
36377;SDS011;22402;42.746;23.606;2023-06-14T00:27:50;3.13;;;2.93;;
36377;SDS011;22402;42.746;23.606;2023-06-14T00:30:16;7.73;;;2.60;;
36377;SDS011;22402;42.746;23.606;2023-06-14T00:32:41;2.70;;;2.50;;
36377;SDS011;22402;42.746;23.606;2023-06-14T00:35:08;6.20;;;3.13;;
36377;SDS011;22402;42.746;23.606;2023-06-14T00:37:33;5.30;;;3.10;;
36377;SDS011;22402;42.746;23.606;2023-06-14T00:39:59;3.70;;;2.93;;
36377;SDS011;22402;42.746;23.606;2023-06-14T00:42:25;2.90;;;2.70;;
36377;SDS011;22402;42.746;23.606;2023-06-14T00:44:53;4.63;;;2.80;;
36377;SDS011;22402;42.746;23.606;2023-06-14T00:47:19;2.77;;;2.57;;
36377;SDS011;22402;42.746;23.606;2023-06-14T00:49:46;3.40;;;3.10;;
36377;SDS011;22402;42.746;23.606;2023-06-14T00:52:12;3.60;;;2.83;;
36377;SDS011;22402;42.746;23.606;2023-06-14T00:54:39;4.30;;;3.63;;
36377;SDS011;22402;42.746;23.606;2023-06-14T00:57:06;7.27;;;2.80;;
36377;SDS011;22402;42.746;23.606;2023-06-14T00:59:32;3.50;;;2.70;;
36377;SDS011;22402;42.746;23.606;2023-06-14T01:01:58;3.70;;;3.10;;
36377;SDS011;22402;42.746;23.606;2023-06-14T01:04:23;2.00;;;1.90;;
36377;SDS011;22402;42.746;23.606;2023-06-14T01:06:53;2.77;;;2.57;;
36377;SDS011;22402;42.746;23.606;2023-06-14T01:10:19;2.60;;;2.40;;
36377;SDS011;22402;42.746;23.606;2023-06-14T01:12:53;3.40;;;2.80;;
36377;SDS011;22402;42.746;23.606;2023-06-14T01:15:23;3.60;;;2.87;;
36377;SDS011;22402;42.746;23.606;2023-06-14T01:17:49;3.20;;;2.40;;
36377;SDS011;22402;42.746;23.606;2023-06-14T01:20:16;3.27;;;3.03;;
36377;SDS011;22402;42.746;23.606;2023-06-14T01:22:54;2.97;;;2.73;;
36377;SDS011;22402;42.746;23.606;2023-06-14T01:25:20;2.90;;;2.70;;
36377;SDS011;22402;42.746;23.606;2023-06-14T01:28:09;2.33;;;2.13;;
36377;SDS011;22402;42.746;23.606;2023-06-14T01:30:39;3.07;;;2.87;;
36377;SDS011;22402;42.746;23.606;2023-06-14T01:33:13;2.80;;;2.60;;
36377;SDS011;22402;42.746;23.606;2023-06-14T01:35:43;3.70;;;3.17;;
36377;SDS011;22402;42.746;23.606;2023-06-14T01:38:12;2.83;;;2.60;;
36377;SDS011;22402;42.746;23.606;2023-06-14T01:40:38;4.80;;;2.90;;
36377;SDS011;22402;42.746;23.606;2023-06-14T01:43:05;2.47;;;2.27;;
36377;SDS011;22402;42.746;23.606;2023-06-14T01:45:35;3.20;;;2.90;;
36377;SDS011;22402;42.746;23.606;2023-06-14T01:48:02;6.20;;;2.90;;
36377;SDS011;22402;42.746;23.606;2023-06-14T01:50:29;3.90;;;3.00;;
36377;SDS011;22402;42.746;23.606;2023-06-14T01:52:56;3.90;;;3.20;;
36377;SDS011;22402;42.746;23.606;2023-06-14T01:55:21;3.50;;;3.20;;
36377;SDS011;22402;42.746;23.606;2023-06-14T01:57:47;3.10;;;2.80;;
36377;SDS011;22402;42.746;23.606;2023-06-14T02:00:13;7.43;;;3.60;;
36377;SDS011;22402;42.746;23.606;2023-06-14T02:02:40;3.10;;;2.80;;
36377;SDS011;22402;42.746;23.606;2023-06-14T02:05:05;4.03;;;3.03;;
36377;SDS011;22402;42.746;23.606;2023-06-14T02:07:31;3.30;;;2.87;;
36377;SDS011;22402;42.746;23.606;2023-06-14T02:09:57;3.50;;;3.20;;
36377;SDS011;22402;42.746;23.606;2023-06-14T02:12:22;3.40;;;3.10;;
36377;SDS011;22402;42.746;23.606;2023-06-14T02:14:47;2.87;;;2.67;;
36377;SDS011;22402;42.746;23.606;2023-06-14T02:17:13;3.17;;;2.87;;
36377;SDS011;22402;42.746;23.606;2023-06-14T02:19:39;3.03;;;2.83;;
36377;SDS011;22402;42.746;23.606;2023-06-14T02:22:05;7.00;;;2.67;;
36377;SDS011;22402;42.746;23.606;2023-06-14T02:24:31;4.00;;;3.47;;
36377;SDS011;22402;42.746;23.606;2023-06-14T02:27:01;6.10;;;3.53;;
36377;SDS011;22402;42.746;23.606;2023-06-14T02:29:26;4.43;;;2.90;;
36377;SDS011;22402;42.746;23.606;2023-06-14T02:31:52;4.77;;;3.13;;
36377;SDS011;22402;42.746;23.606;2023-06-14T02:34:17;3.13;;;2.93;;
36377;SDS011;22402;42.746;23.606;2023-06-14T02:36:44;3.23;;;2.93;;
36377;SDS011;22402;42.746;23.606;2023-06-14T02:39:10;5.20;;;3.20;;
36377;SDS011;22402;42.746;23.606;2023-06-14T02:41:36;3.03;;;2.83;;
36377;SDS011;22402;42.746;23.606;2023-06-14T02:44:01;3.87;;;3.47;;
36377;SDS011;22402;42.746;23.606;2023-06-14T02:49:00;3.60;;;3.30;;
36377;SDS011;22402;42.746;23.606;2023-06-14T02:51:26;3.30;;;3.00;;
36377;SDS011;22402;42.746;23.606;2023-06-14T02:53:51;5.43;;;3.83;;
36377;SDS011;22402;42.746;23.606;2023-06-14T02:56:16;4.10;;;3.60;;
36377;SDS011;22402;42.746;23.606;2023-06-14T02:58:44;3.80;;;3.07;;
36377;SDS011;22402;42.746;23.606;2023-06-14T03:01:09;3.00;;;2.80;;
36377;SDS011;22402;42.746;23.606;2023-06-14T03:03:37;6.33;;;5.50;;
36377;SDS011;22402;42.746;23.606;2023-06-14T03:06:03;7.13;;;6.43;;
36377;SDS011;22402;42.746;23.606;2023-06-14T03:08:30;6.70;;;5.60;;
36377;SDS011;22402;42.746;23.606;2023-06-14T03:11:03;6.57;;;5.47;;
36377;SDS011;22402;42.746;23.606;2023-06-14T03:13:30;5.53;;;5.03;;
36377;SDS011;22402;42.746;23.606;2023-06-14T03:15:57;5.20;;;4.70;;
36377;SDS011;22402;42.746;23.606;2023-06-14T03:18:22;6.23;;;4.70;;
36377;SDS011;22402;42.746;23.606;2023-06-14T03:20:48;6.03;;;4.67;;
36377;SDS011;22402;42.746;23.606;2023-06-14T03:23:14;5.10;;;4.70;;
36377;SDS011;22402;42.746;23.606;2023-06-14T03:25:39;9.53;;;4.57;;
36377;SDS011;22402;42.746;23.606;2023-06-14T03:28:10;5.63;;;4.50;;
36377;SDS011;22402;42.746;23.606;2023-06-14T03:30:35;6.07;;;4.60;;
36377;SDS011;22402;42.746;23.606;2023-06-14T03:33:01;4.80;;;3.90;;
36377;SDS011;22402;42.746;23.606;2023-06-14T03:35:26;4.43;;;4.00;;
36377;SDS011;22402;42.746;23.606;2023-06-14T03:37:53;4.40;;;4.00;;
36377;SDS011;22402;42.746;23.606;2023-06-14T03:40:18;4.20;;;3.77;;
36377;SDS011;22402;42.746;23.606;2023-06-14T03:42:45;4.17;;;3.83;;
36377;SDS011;22402;42.746;23.606;2023-06-14T03:45:10;4.13;;;3.83;;
36377;SDS011;22402;42.746;23.606;2023-06-14T03:47:36;5.80;;;4.40;;
36377;SDS011;22402;42.746;23.606;2023-06-14T03:50:02;5.90;;;5.40;;
36377;SDS011;22402;42.746;23.606;2023-06-14T03:52:28;8.17;;;7.37;;
36377;SDS011;22402;42.746;23.606;2023-06-14T03:54:54;10.90;;;8.60;;
36377;SDS011;22402;42.746;23.606;2023-06-14T03:57:19;10.20;;;9.00;;
36377;SDS011;22402;42.746;23.606;2023-06-14T03:59:45;9.50;;;8.50;;
36377;SDS011;22402;42.746;23.606;2023-06-14T04:02:11;10.50;;;9.40;;
36377;SDS011;22402;42.746;23.606;2023-06-14T04:04:40;10.83;;;9.73;;
36377;SDS011;22402;42.746;23.606;2023-06-14T04:07:09;10.87;;;9.73;;
36377;SDS011;22402;42.746;23.606;2023-06-14T04:09:38;11.33;;;10.20;;
36377;SDS011;22402;42.746;23.606;2023-06-14T04:12:04;12.43;;;9.00;;
36377;SDS011;22402;42.746;23.606;2023-06-14T04:14:30;10.03;;;9.00;;
36377;SDS011;22402;42.746;23.606;2023-06-14T04:16:57;10.83;;;7.93;;
36377;SDS011;22402;42.746;23.606;2023-06-14T04:19:23;8.03;;;7.10;;
36377;SDS011;22402;42.746;23.606;2023-06-14T04:21:49;9.13;;;6.27;;
36377;SDS011;22402;42.746;23.606;2023-06-14T04:24:15;6.90;;;6.27;;
36377;SDS011;22402;42.746;23.606;2023-06-14T04:26:41;6.63;;;5.83;;
36377;SDS011;22402;42.746;23.606;2023-06-14T04:29:09;5.90;;;5.40;;
36377;SDS011;22402;42.746;23.606;2023-06-14T04:31:42;5.70;;;5.17;;
36377;SDS011;22402;42.746;23.606;2023-06-14T04:34:09;5.73;;;5.23;;
36377;SDS011;22402;42.746;23.606;2023-06-14T04:36:40;5.57;;;4.90;;
36377;SDS011;22402;42.746;23.606;2023-06-14T04:39:12;5.13;;;4.73;;
36377;SDS011;22402;42.746;23.606;2023-06-14T04:41:38;8.87;;;5.43;;
36377;SDS011;22402;42.746;23.606;2023-06-14T04:44:03;6.00;;;5.50;;
36377;SDS011;22402;42.746;23.606;2023-06-14T04:46:29;6.90;;;5.50;;
36377;SDS011;22402;42.746;23.606;2023-06-14T04:48:57;5.80;;;5.30;;
36377;SDS011;22402;42.746;23.606;2023-06-14T04:51:23;6.53;;;5.93;;
36377;SDS011;22402;42.746;23.606;2023-06-14T04:53:54;8.47;;;6.33;;
36377;SDS011;22402;42.746;23.606;2023-06-14T04:56:23;7.50;;;6.80;;
36377;SDS011;22402;42.746;23.606;2023-06-14T04:58:53;8.67;;;7.77;;
36377;SDS011;22402;42.746;23.606;2023-06-14T05:01:19;7.93;;;7.07;;
36377;SDS011;22402;42.746;23.606;2023-06-14T05:03:49;8.87;;;7.97;;
36377;SDS011;22402;42.746;23.606;2023-06-14T05:06:15;8.97;;;7.70;;
36377;SDS011;22402;42.746;23.606;2023-06-14T05:08:42;12.73;;;8.47;;
36377;SDS011;22402;42.746;23.606;2023-06-14T05:11:08;9.60;;;8.27;;
36377;SDS011;22402;42.746;23.606;2023-06-14T05:13:33;9.60;;;8.70;;
36377;SDS011;22402;42.746;23.606;2023-06-14T05:15:59;8.80;;;8.00;;
36377;SDS011;22402;42.746;23.606;2023-06-14T05:18:25;9.83;;;8.80;;
36377;SDS011;22402;42.746;23.606;2023-06-14T05:20:50;10.90;;;9.33;;
36377;SDS011;22402;42.746;23.606;2023-06-14T05:23:16;9.43;;;8.40;;
36377;SDS011;22402;42.746;23.606;2023-06-14T05:25:42;10.73;;;9.73;;
36377;SDS011;22402;42.746;23.606;2023-06-14T05:28:08;11.80;;;9.00;;
36377;SDS011;22402;42.746;23.606;2023-06-14T05:30:34;9.23;;;8.33;;
36377;SDS011;22402;42.746;23.606;2023-06-14T05:33:00;10.10;;;9.10;;
36377;SDS011;22402;42.746;23.606;2023-06-14T05:35:25;11.80;;;9.20;;
36377;SDS011;22402;42.746;23.606;2023-06-14T05:37:52;14.80;;;9.67;;
36377;SDS011;22402;42.746;23.606;2023-06-14T05:40:18;9.80;;;8.53;;
36377;SDS011;22402;42.746;23.606;2023-06-14T05:42:44;10.90;;;9.40;;
36377;SDS011;22402;42.746;23.606;2023-06-14T05:45:09;9.73;;;8.73;;
36377;SDS011;22402;42.746;23.606;2023-06-14T05:47:35;12.83;;;9.77;;
36377;SDS011;22402;42.746;23.606;2023-06-14T05:50:01;10.03;;;9.03;;
36377;SDS011;22402;42.746;23.606;2023-06-14T05:52:26;13.47;;;10.43;;
36377;SDS011;22402;42.746;23.606;2023-06-14T05:54:55;10.33;;;9.07;;
36377;SDS011;22402;42.746;23.606;2023-06-14T05:57:20;11.00;;;9.60;;
36377;SDS011;22402;42.746;23.606;2023-06-14T05:59:46;10.50;;;9.50;;
36377;SDS011;22402;42.746;23.606;2023-06-14T06:02:11;15.30;;;9.33;;
36377;SDS011;22402;42.746;23.606;2023-06-14T06:04:37;10.80;;;9.73;;
36377;SDS011;22402;42.746;23.606;2023-06-14T06:07:02;12.00;;;10.80;;
36377;SDS011;22402;42.746;23.606;2023-06-14T06:09:28;12.60;;;10.33;;
36377;SDS011;22402;42.746;23.606;2023-06-14T06:11:54;12.73;;;11.43;;
36377;SDS011;22402;42.746;23.606;2023-06-14T06:14:19;11.70;;;10.23;;
36377;SDS011;22402;42.746;23.606;2023-06-14T06:16:45;10.83;;;9.10;;
36377;SDS011;22402;42.746;23.606;2023-06-14T06:19:10;12.23;;;10.87;;
36377;SDS011;22402;42.746;23.606;2023-06-14T06:21:36;9.67;;;8.67;;
36377;SDS011;22402;42.746;23.606;2023-06-14T06:24:01;10.67;;;9.63;;
36377;SDS011;22402;42.746;23.606;2023-06-14T06:26:28;10.73;;;9.63;;
36377;SDS011;22402;42.746;23.606;2023-06-14T06:28:54;10.27;;;9.17;;
36377;SDS011;22402;42.746;23.606;2023-06-14T06:31:20;10.30;;;9.30;;
36377;SDS011;22402;42.746;23.606;2023-06-14T06:33:47;11.90;;;9.80;;
36377;SDS011;22402;42.746;23.606;2023-06-14T06:36:12;10.90;;;9.13;;
36377;SDS011;22402;42.746;23.606;2023-06-14T06:38:40;11.20;;;9.00;;
36377;SDS011;22402;42.746;23.606;2023-06-14T06:41:06;10.43;;;9.33;;
36377;SDS011;22402;42.746;23.606;2023-06-14T06:43:31;9.80;;;8.70;;
36377;SDS011;22402;42.746;23.606;2023-06-14T06:45:57;10.67;;;9.57;;
36377;SDS011;22402;42.746;23.606;2023-06-14T06:48:22;11.60;;;9.00;;
36377;SDS011;22402;42.746;23.606;2023-06-14T06:50:47;9.07;;;8.27;;
36377;SDS011;22402;42.746;23.606;2023-06-14T06:53:13;9.27;;;8.30;;
36377;SDS011;22402;42.746;23.606;2023-06-14T06:55:38;9.10;;;8.00;;
36377;SDS011;22402;42.746;23.606;2023-06-14T06:58:05;8.00;;;7.20;;
36377;SDS011;22402;42.746;23.606;2023-06-14T07:00:31;9.57;;;7.97;;
36377;SDS011;22402;42.746;23.606;2023-06-14T07:02:56;9.40;;;8.50;;
36377;SDS011;22402;42.746;23.606;2023-06-14T07:05:22;10.80;;;9.00;;
36377;SDS011;22402;42.746;23.606;2023-06-14T07:07:48;10.10;;;9.10;;
36377;SDS011;22402;42.746;23.606;2023-06-14T07:10:13;9.03;;;8.10;;
36377;SDS011;22402;42.746;23.606;2023-06-14T07:12:39;13.83;;;8.50;;
36377;SDS011;22402;42.746;23.606;2023-06-14T07:15:08;8.50;;;7.70;;
36377;SDS011;22402;42.746;23.606;2023-06-14T07:17:34;8.30;;;6.93;;
36377;SDS011;22402;42.746;23.606;2023-06-14T07:20:00;7.83;;;7.13;;
36377;SDS011;22402;42.746;23.606;2023-06-14T07:22:30;7.33;;;6.60;;
36377;SDS011;22402;42.746;23.606;2023-06-14T07:24:55;8.40;;;7.50;;
36377;SDS011;22402;42.746;23.606;2023-06-14T07:27:21;9.30;;;8.40;;
36377;SDS011;22402;42.746;23.606;2023-06-14T07:29:46;9.67;;;7.83;;
36377;SDS011;22402;42.746;23.606;2023-06-14T07:32:12;7.87;;;7.07;;
36377;SDS011;22402;42.746;23.606;2023-06-14T07:34:37;7.57;;;6.77;;
36377;SDS011;22402;42.746;23.606;2023-06-14T07:37:03;6.63;;;6.03;;
36377;SDS011;22402;42.746;23.606;2023-06-14T07:39:28;6.63;;;6.00;;
36377;SDS011;22402;42.746;23.606;2023-06-14T07:41:54;6.83;;;6.17;;
36377;SDS011;22402;42.746;23.606;2023-06-14T07:44:19;6.83;;;6.20;;
36377;SDS011;22402;42.746;23.606;2023-06-14T07:46:45;6.83;;;6.17;;
36377;SDS011;22402;42.746;23.606;2023-06-14T07:49:14;5.70;;;4.83;;
36377;SDS011;22402;42.746;23.606;2023-06-14T07:51:40;7.43;;;6.00;;
36377;SDS011;22402;42.746;23.606;2023-06-14T07:54:06;6.20;;;5.70;;
36377;SDS011;22402;42.746;23.606;2023-06-14T07:56:32;6.40;;;5.73;;
36377;SDS011;22402;42.746;23.606;2023-06-14T07:58:58;11.93;;;5.60;;
36377;SDS011;22402;42.746;23.606;2023-06-14T08:01:23;8.60;;;5.93;;
36377;SDS011;22402;42.746;23.606;2023-06-14T08:03:51;5.50;;;5.10;;
36377;SDS011;22402;42.746;23.606;2023-06-14T08:06:17;5.50;;;4.70;;
36377;SDS011;22402;42.746;23.606;2023-06-14T08:08:42;6.23;;;5.00;;
36377;SDS011;22402;42.746;23.606;2023-06-14T08:11:08;7.07;;;5.00;;
36377;SDS011;22402;42.746;23.606;2023-06-14T08:13:33;5.50;;;5.00;;
36377;SDS011;22402;42.746;23.606;2023-06-14T08:15:59;5.10;;;4.67;;
36377;SDS011;22402;42.746;23.606;2023-06-14T08:18:26;5.03;;;4.63;;
36377;SDS011;22402;42.746;23.606;2023-06-14T08:20:51;5.00;;;4.50;;
36377;SDS011;22402;42.746;23.606;2023-06-14T08:23:17;5.40;;;4.90;;
36377;SDS011;22402;42.746;23.606;2023-06-14T08:25:44;5.57;;;5.07;;
36377;SDS011;22402;42.746;23.606;2023-06-14T08:28:10;4.47;;;3.83;;
36377;SDS011;22402;42.746;23.606;2023-06-14T08:30:35;6.57;;;4.50;;
36377;SDS011;22402;42.746;23.606;2023-06-14T08:33:01;6.37;;;4.80;;
36377;SDS011;22402;42.746;23.606;2023-06-14T08:35:26;4.47;;;4.07;;
36377;SDS011;22402;42.746;23.606;2023-06-14T08:37:52;4.23;;;3.93;;
36377;SDS011;22402;42.746;23.606;2023-06-14T08:42:48;4.90;;;4.40;;
36377;SDS011;22402;42.746;23.606;2023-06-14T08:45:16;6.80;;;3.70;;
36377;SDS011;22402;42.746;23.606;2023-06-14T08:47:42;6.07;;;3.73;;
36377;SDS011;22402;42.746;23.606;2023-06-14T08:50:07;3.83;;;3.43;;
36377;SDS011;22402;42.746;23.606;2023-06-14T08:52:34;3.47;;;3.17;;
36377;SDS011;22402;42.746;23.606;2023-06-14T08:55:14;3.30;;;2.50;;
36377;SDS011;22402;42.746;23.606;2023-06-14T08:57:42;4.00;;;3.70;;
36377;SDS011;22402;42.746;23.606;2023-06-14T09:00:10;5.33;;;3.40;;
36377;SDS011;22402;42.746;23.606;2023-06-14T09:02:38;4.50;;;3.30;;
36377;SDS011;22402;42.746;23.606;2023-06-14T09:05:08;3.30;;;3.00;;
36377;SDS011;22402;42.746;23.606;2023-06-14T09:07:43;4.07;;;2.53;;
36377;SDS011;22402;42.746;23.606;2023-06-14T09:10:09;4.10;;;3.03;;
36377;SDS011;22402;42.746;23.606;2023-06-14T09:12:36;2.77;;;2.57;;
36377;SDS011;22402;42.746;23.606;2023-06-14T09:15:03;3.37;;;3.07;;
36377;SDS011;22402;42.746;23.606;2023-06-14T09:17:37;3.83;;;2.87;;
36377;SDS011;22402;42.746;23.606;2023-06-14T09:20:04;3.27;;;3.03;;
36377;SDS011;22402;42.746;23.606;2023-06-14T09:22:33;3.50;;;3.20;;
36377;SDS011;22402;42.746;23.606;2023-06-14T09:24:58;2.90;;;2.70;;
36377;SDS011;22402;42.746;23.606;2023-06-14T09:27:28;4.93;;;3.07;;
36377;SDS011;22402;42.746;23.606;2023-06-14T09:29:54;2.63;;;2.40;;
36377;SDS011;22402;42.746;23.606;2023-06-14T09:32:20;3.17;;;2.90;;
36377;SDS011;22402;42.746;23.606;2023-06-14T09:34:46;2.73;;;2.53;;
36377;SDS011;22402;42.746;23.606;2023-06-14T09:37:12;2.70;;;2.50;;
36377;SDS011;22402;42.746;23.606;2023-06-14T09:39:50;2.80;;;2.60;;
36377;SDS011;22402;42.746;23.606;2023-06-14T09:42:16;3.50;;;2.40;;
36377;SDS011;22402;42.746;23.606;2023-06-14T09:44:48;2.27;;;2.07;;
36377;SDS011;22402;42.746;23.606;2023-06-14T09:47:14;2.80;;;2.60;;
36377;SDS011;22402;42.746;23.606;2023-06-14T09:49:41;2.73;;;2.53;;
36377;SDS011;22402;42.746;23.606;2023-06-14T09:52:07;2.57;;;2.37;;
36377;SDS011;22402;42.746;23.606;2023-06-14T09:54:41;1.90;;;1.80;;
36377;SDS011;22402;42.746;23.606;2023-06-14T09:57:20;2.20;;;2.10;;
36377;SDS011;22402;42.746;23.606;2023-06-14T09:59:47;3.27;;;1.97;;
36377;SDS011;22402;42.746;23.606;2023-06-14T10:02:35;2.10;;;2.00;;
36377;SDS011;22402;42.746;23.606;2023-06-14T10:05:06;2.20;;;2.10;;
36377;SDS011;22402;42.746;23.606;2023-06-14T10:07:42;1.70;;;1.60;;
36377;SDS011;22402;42.746;23.606;2023-06-14T10:10:08;1.90;;;1.80;;
36377;SDS011;22402;42.746;23.606;2023-06-14T10:12:34;2.10;;;2.00;;
36377;SDS011;22402;42.746;23.606;2023-06-14T10:15:00;1.40;;;1.38;;
36377;SDS011;22402;42.746;23.606;2023-06-14T10:20:02;1.83;;;1.73;;
36377;SDS011;22402;42.746;23.606;2023-06-14T10:25:41;2.45;;;2.00;;
36377;SDS011;22402;42.746;23.606;2023-06-14T10:28:17;1.90;;;1.80;;
36377;SDS011;22402;42.746;23.606;2023-06-14T10:33:36;2.00;;;1.90;;
36377;SDS011;22402;42.746;23.606;2023-06-14T10:41:50;1.88;;;1.77;;
36377;SDS011;22402;42.746;23.606;2023-06-14T10:46:46;2.05;;;1.95;;
36377;SDS011;22402;42.746;23.606;2023-06-14T10:49:15;1.67;;;1.58;;
36377;SDS011;22402;42.746;23.606;2023-06-14T10:51:45;1.65;;;1.55;;
36377;SDS011;22402;42.746;23.606;2023-06-14T10:54:15;1.58;;;1.58;;
36377;SDS011;22402;42.746;23.606;2023-06-14T10:56:51;1.80;;;1.70;;
36377;SDS011;22402;42.746;23.606;2023-06-14T10:59:19;1.75;;;1.60;;
36377;SDS011;22402;42.746;23.606;2023-06-14T11:04:40;4.97;;;1.67;;
36377;SDS011;22402;42.746;23.606;2023-06-14T11:07:17;1.67;;;1.58;;
36377;SDS011;22402;42.746;23.606;2023-06-14T11:12:42;1.52;;;1.42;;
36377;SDS011;22402;42.746;23.606;2023-06-14T11:15:12;1.40;;;1.30;;
36377;SDS011;22402;42.746;23.606;2023-06-14T11:17:37;1.17;;;1.15;;
36377;SDS011;22402;42.746;23.606;2023-06-14T11:22:41;1.65;;;1.55;;
36377;SDS011;22402;42.746;23.606;2023-06-14T11:25:10;1.48;;;1.38;;
36377;SDS011;22402;42.746;23.606;2023-06-14T11:27:36;1.60;;;1.50;;
36377;SDS011;22402;42.746;23.606;2023-06-14T11:30:02;1.33;;;1.33;;
36377;SDS011;22402;42.746;23.606;2023-06-14T11:32:27;2.28;;;2.17;;
36377;SDS011;22402;42.746;23.606;2023-06-14T11:34:53;1.83;;;1.73;;
36377;SDS011;22402;42.746;23.606;2023-06-14T11:37:18;1.85;;;1.75;;
36377;SDS011;22402;42.746;23.606;2023-06-14T11:39:44;2.23;;;2.13;;
36377;SDS011;22402;42.746;23.606;2023-06-14T11:42:14;2.03;;;1.93;;
36377;SDS011;22402;42.746;23.606;2023-06-14T11:44:39;1.83;;;1.73;;
36377;SDS011;22402;42.746;23.606;2023-06-14T11:47:05;1.70;;;1.60;;
36377;SDS011;22402;42.746;23.606;2023-06-14T11:49:34;2.05;;;1.38;;
36377;SDS011;22402;42.746;23.606;2023-06-14T11:52:00;1.92;;;1.83;;
36377;SDS011;22402;42.746;23.606;2023-06-14T11:54:25;5.47;;;1.77;;
36377;SDS011;22402;42.746;23.606;2023-06-14T11:56:51;2.90;;;1.73;;
36377;SDS011;22402;42.746;23.606;2023-06-14T11:59:16;1.77;;;1.73;;
36377;SDS011;22402;42.746;23.606;2023-06-14T12:01:42;1.45;;;1.35;;
36377;SDS011;22402;42.746;23.606;2023-06-14T12:04:08;1.67;;;1.58;;
36377;SDS011;22402;42.746;23.606;2023-06-14T12:06:34;1.60;;;1.50;;
36377;SDS011;22402;42.746;23.606;2023-06-14T12:09:04;1.73;;;1.58;;
36377;SDS011;22402;42.746;23.606;2023-06-14T12:11:34;1.98;;;1.88;;
36377;SDS011;22402;42.746;23.606;2023-06-14T12:14:00;1.60;;;1.50;;
36377;SDS011;22402;42.746;23.606;2023-06-14T12:16:31;1.55;;;1.45;;
36377;SDS011;22402;42.746;23.606;2023-06-14T12:19:15;1.80;;;1.70;;
36377;SDS011;22402;42.746;23.606;2023-06-14T12:21:41;2.22;;;2.10;;
36377;SDS011;22402;42.746;23.606;2023-06-14T12:24:08;3.70;;;1.50;;
36377;SDS011;22402;42.746;23.606;2023-06-14T12:26:40;1.30;;;1.20;;
36377;SDS011;22402;42.746;23.606;2023-06-14T12:29:06;1.48;;;1.38;;
36377;SDS011;22402;42.746;23.606;2023-06-14T12:31:35;1.75;;;1.65;;
36377;SDS011;22402;42.746;23.606;2023-06-14T12:34:00;5.30;;;2.33;;
36377;SDS011;22402;42.746;23.606;2023-06-14T12:36:26;4.43;;;2.60;;
36377;SDS011;22402;42.746;23.606;2023-06-14T12:38:52;4.40;;;2.23;;
36377;SDS011;22402;42.746;23.606;2023-06-14T12:41:21;3.10;;;2.90;;
36377;SDS011;22402;42.746;23.606;2023-06-14T12:43:47;3.70;;;2.70;;
36377;SDS011;22402;42.746;23.606;2023-06-14T12:46:13;3.63;;;3.07;;
36377;SDS011;22402;42.746;23.606;2023-06-14T12:48:38;3.77;;;3.43;;
36377;SDS011;22402;42.746;23.606;2023-06-14T12:51:03;3.97;;;3.67;;
36377;SDS011;22402;42.746;23.606;2023-06-14T12:53:29;4.57;;;4.17;;
36377;SDS011;22402;42.746;23.606;2023-06-14T12:55:54;4.13;;;3.80;;
36377;SDS011;22402;42.746;23.606;2023-06-14T12:58:20;4.17;;;3.87;;
36377;SDS011;22402;42.746;23.606;2023-06-14T13:00:46;4.17;;;3.87;;
36377;SDS011;22402;42.746;23.606;2023-06-14T13:03:11;5.93;;;4.67;;
36377;SDS011;22402;42.746;23.606;2023-06-14T13:05:37;6.37;;;4.37;;
36377;SDS011;22402;42.746;23.606;2023-06-14T13:08:06;3.97;;;3.57;;
36377;SDS011;22402;42.746;23.606;2023-06-14T13:10:33;4.70;;;4.20;;
36377;SDS011;22402;42.746;23.606;2023-06-14T13:12:59;3.10;;;2.83;;
36377;SDS011;22402;42.746;23.606;2023-06-14T13:15:25;3.70;;;3.40;;
36377;SDS011;22402;42.746;23.606;2023-06-14T13:17:51;4.93;;;2.97;;
36377;SDS011;22402;42.746;23.606;2023-06-14T13:20:16;4.40;;;4.00;;
36377;SDS011;22402;42.746;23.606;2023-06-14T13:22:45;5.40;;;4.30;;
36377;SDS011;22402;42.746;23.606;2023-06-14T13:25:10;3.63;;;3.33;;
36377;SDS011;22402;42.746;23.606;2023-06-14T13:27:36;3.67;;;3.37;;
36377;SDS011;22402;42.746;23.606;2023-06-14T13:30:02;5.07;;;3.67;;
36377;SDS011;22402;42.746;23.606;2023-06-14T13:32:28;4.30;;;3.90;;
36377;SDS011;22402;42.746;23.606;2023-06-14T13:34:53;4.70;;;4.30;;
36377;SDS011;22402;42.746;23.606;2023-06-14T13:37:19;4.80;;;4.37;;
36377;SDS011;22402;42.746;23.606;2023-06-14T13:39:44;5.53;;;5.03;;
36377;SDS011;22402;42.746;23.606;2023-06-14T13:42:10;5.40;;;4.73;;
36377;SDS011;22402;42.746;23.606;2023-06-14T13:44:35;6.00;;;5.40;;
36377;SDS011;22402;42.746;23.606;2023-06-14T13:47:01;5.73;;;4.57;;
36377;SDS011;22402;42.746;23.606;2023-06-14T13:49:26;5.00;;;4.50;;
36377;SDS011;22402;42.746;23.606;2023-06-14T13:51:52;6.50;;;5.30;;
36377;SDS011;22402;42.746;23.606;2023-06-14T13:54:19;5.23;;;4.83;;
36377;SDS011;22402;42.746;23.606;2023-06-14T13:56:48;5.77;;;5.27;;
36377;SDS011;22402;42.746;23.606;2023-06-14T13:59:14;6.13;;;5.63;;
36377;SDS011;22402;42.746;23.606;2023-06-14T14:01:40;5.50;;;5.00;;
36377;SDS011;22402;42.746;23.606;2023-06-14T14:04:06;5.37;;;4.83;;
36377;SDS011;22402;42.746;23.606;2023-06-14T14:06:32;5.50;;;5.10;;
36377;SDS011;22402;42.746;23.606;2023-06-14T15:01:36;10.37;;;7.53;;
36377;SDS011;22402;42.746;23.606;2023-06-14T15:04:01;9.17;;;6.90;;
36377;SDS011;22402;42.746;23.606;2023-06-14T15:06:27;11.50;;;8.00;;
36377;SDS011;22402;42.746;23.606;2023-06-14T15:08:53;12.33;;;7.83;;
36377;SDS011;22402;42.746;23.606;2023-06-14T15:11:18;10.97;;;8.80;;
36377;SDS011;22402;42.746;23.606;2023-06-14T15:13:43;12.53;;;9.03;;
36377;SDS011;22402;42.746;23.606;2023-06-14T15:16:09;11.83;;;9.73;;
36377;SDS011;22402;42.746;23.606;2023-06-14T15:18:35;9.97;;;8.97;;
36377;SDS011;22402;42.746;23.606;2023-06-14T15:21:00;18.03;;;9.30;;
36377;SDS011;22402;42.746;23.606;2023-06-14T15:23:26;12.30;;;9.50;;
36377;SDS011;22402;42.746;23.606;2023-06-14T15:25:51;11.87;;;9.97;;
36377;SDS011;22402;42.746;23.606;2023-06-14T15:28:17;8.90;;;8.10;;
36377;SDS011;22402;42.746;23.606;2023-06-14T15:30:42;9.47;;;8.33;;
36377;SDS011;22402;42.746;23.606;2023-06-14T15:33:08;10.20;;;8.13;;
36377;SDS011;22402;42.746;23.606;2023-06-14T15:35:33;10.50;;;9.40;;
36377;SDS011;22402;42.746;23.606;2023-06-14T15:37:58;10.73;;;8.67;;
36377;SDS011;22402;42.746;23.606;2023-06-14T15:40:24;14.10;;;8.83;;
36377;SDS011;22402;42.746;23.606;2023-06-14T15:42:51;10.30;;;7.83;;
36377;SDS011;22402;42.746;23.606;2023-06-14T15:45:16;10.40;;;6.93;;
36377;SDS011;22402;42.746;23.606;2023-06-14T15:47:41;9.03;;;7.50;;
36377;SDS011;22402;42.746;23.606;2023-06-14T15:50:07;8.03;;;7.23;;
36377;SDS011;22402;42.746;23.606;2023-06-14T15:52:33;7.90;;;7.10;;